createdAt,value
2023-02-11T00:00:51.730Z,9.45
2023-02-11T00:03:19.787Z,12.07
2023-02-11T00:05:47.749Z,10.20
2023-02-11T00:08:17.047Z,10.57
2023-02-11T00:10:46.405Z,11.15
2023-02-11T00:13:15.621Z,9.93
2023-02-11T00:15:43.476Z,11.00
2023-02-11T00:18:11.310Z,10.95
2023-02-11T00:20:39.891Z,11.15
2023-02-11T00:23:07.738Z,9.60
2023-02-11T00:25:37.329Z,11.45
2023-02-11T00:28:05.564Z,11.75
2023-02-11T00:30:35.093Z,10.63
2023-02-11T00:33:02.990Z,9.82
2023-02-11T00:35:31.013Z,10.50
2023-02-11T00:37:58.864Z,10.50
2023-02-11T00:40:26.737Z,11.35
2023-02-11T00:42:54.621Z,10.63
2023-02-11T00:45:22.504Z,9.30
2023-02-11T00:47:51.748Z,9.55
2023-02-11T00:50:19.709Z,9.02
2023-02-11T00:52:49.510Z,10.02
2023-02-11T00:55:17.757Z,8.52
2023-02-11T00:57:45.609Z,10.25
2023-02-11T01:00:14.552Z,9.95
2023-02-11T01:02:42.451Z,9.80
2023-02-11T01:05:14.451Z,9.32
2023-02-11T01:07:42.317Z,11.02
2023-02-11T01:10:10.489Z,10.50
2023-02-11T01:12:38.386Z,10.38
2023-02-11T01:15:07.240Z,8.38
2023-02-11T01:17:35.325Z,8.35
2023-02-11T01:20:04.880Z,10.30
2023-02-11T01:22:37.363Z,7.70
2023-02-11T01:25:05.606Z,9.65
2023-02-11T01:27:33.566Z,8.35
2023-02-11T01:30:01.430Z,8.68
2023-02-11T01:32:29.310Z,8.98
2023-02-11T01:34:57.221Z,9.02
2023-02-11T01:37:25.197Z,10.45
2023-02-11T01:39:54.557Z,9.57
2023-02-11T01:42:23.614Z,9.95
2023-02-11T01:44:52.438Z,10.88
2023-02-11T01:47:20.594Z,8.15
2023-02-11T01:49:50.477Z,7.93
2023-02-11T01:52:20.068Z,9.13
2023-02-11T01:55:07.944Z,8.90
2023-02-11T01:57:37.935Z,9.00
2023-02-11T02:00:11.446Z,8.85
2023-02-11T02:02:45.548Z,7.45
2023-02-11T02:05:20.132Z,8.27
2023-02-11T02:07:53.607Z,8.73
2023-02-11T02:10:22.574Z,9.55
2023-02-11T02:12:51.806Z,9.27
2023-02-11T02:15:30.565Z,8.27
2023-02-11T02:18:04.153Z,8.60
2023-02-11T02:21:08.965Z,8.15
2023-02-11T02:23:56.363Z,8.40
2023-02-11T02:26:39.544Z,8.18
2023-02-11T02:29:49.363Z,8.68
2023-02-11T02:32:44.288Z,7.22
2023-02-11T02:35:17.530Z,7.70
2023-02-11T02:37:48.736Z,8.73
2023-02-11T02:40:17.992Z,9.23
2023-02-11T02:42:45.898Z,7.35
2023-02-11T02:45:13.754Z,9.75
2023-02-11T02:47:42.945Z,7.60
2023-02-11T02:50:10.925Z,8.02
2023-02-11T02:52:43.287Z,7.38
2023-02-11T02:55:18.461Z,7.60
2023-02-11T02:58:14.437Z,8.20
2023-02-11T03:00:44.513Z,7.60
2023-02-11T03:03:22.411Z,6.35
2023-02-11T03:05:53.983Z,7.65
2023-02-11T03:08:26.456Z,7.68
2023-02-11T03:10:54.812Z,7.32
2023-02-11T03:13:24.128Z,6.80
2023-02-11T03:15:53.571Z,7.15
2023-02-11T03:18:24.943Z,6.43
2023-02-11T03:20:54.390Z,10.50
2023-02-11T03:23:24.120Z,6.93
2023-02-11T03:25:53.991Z,7.40
2023-02-11T03:28:25.110Z,6.65
2023-02-11T03:30:57.075Z,7.63
2023-02-11T03:33:28.017Z,7.43
2023-02-11T03:35:57.033Z,6.45
2023-02-11T03:38:27.250Z,7.47
2023-02-11T03:40:55.109Z,7.75
2023-02-11T03:43:24.039Z,6.78
2023-02-11T03:45:52.867Z,7.22
2023-02-11T03:48:23.546Z,7.90
2023-02-11T03:50:52.769Z,7.00
2023-02-11T03:53:21.080Z,7.25
2023-02-11T03:55:49.452Z,6.25
2023-02-11T03:58:17.582Z,7.10
2023-02-11T04:00:45.560Z,7.18
2023-02-11T04:03:14.168Z,6.57
2023-02-11T04:05:42.284Z,8.77
2023-02-11T04:08:11.539Z,6.55
2023-02-11T04:10:39.414Z,7.50
2023-02-11T04:13:09.644Z,8.45
2023-02-11T04:15:37.490Z,8.02
2023-02-11T04:18:05.469Z,8.05
2023-02-11T04:20:33.651Z,6.93
2023-02-11T04:23:01.508Z,6.57
2023-02-11T04:25:30.717Z,6.43
2023-02-11T04:27:58.567Z,6.60
2023-02-11T04:30:26.419Z,8.10
2023-02-11T04:32:54.947Z,8.45
2023-02-11T04:35:22.861Z,6.57
2023-02-11T04:37:50.759Z,7.63
2023-02-11T04:40:18.832Z,6.78
2023-02-11T04:42:48.066Z,6.70
2023-02-11T04:45:16.066Z,6.82
2023-02-11T04:47:43.962Z,6.40
2023-02-11T04:50:11.837Z,6.50
2023-02-11T04:52:39.724Z,7.63
2023-02-11T04:55:08.191Z,6.90
2023-02-11T04:57:36.048Z,8.20
2023-02-11T05:00:05.614Z,7.18
2023-02-11T05:02:33.480Z,6.28
2023-02-11T05:05:01.368Z,6.25
2023-02-11T05:07:29.224Z,6.78
2023-02-11T05:09:57.080Z,5.82
2023-02-11T05:12:24.960Z,6.68
2023-02-11T05:14:52.828Z,5.72
2023-02-11T05:17:22.116Z,5.97
2023-02-11T05:19:50.012Z,6.35
2023-02-11T05:22:17.879Z,6.63
2023-02-11T05:24:45.744Z,7.57
2023-02-11T05:27:13.612Z,7.20
2023-02-11T05:29:41.488Z,6.45
2023-02-11T05:32:09.333Z,6.85
2023-02-11T05:34:38.571Z,7.38
2023-02-11T05:37:06.788Z,6.88
2023-02-11T05:39:34.695Z,6.65
2023-02-11T05:42:02.521Z,5.57
2023-02-11T05:44:30.417Z,6.47
2023-02-11T05:46:58.297Z,9.32
2023-02-11T05:49:26.169Z,6.50
2023-02-11T05:51:55.395Z,5.70
2023-02-11T05:54:23.305Z,6.55
2023-02-11T05:56:51.250Z,6.43
2023-02-11T05:59:19.154Z,6.82
2023-02-11T06:01:47.073Z,7.50
2023-02-11T06:04:14.962Z,10.00
2023-02-11T06:06:42.832Z,6.28
2023-02-11T06:09:12.229Z,6.47
2023-02-11T06:11:40.110Z,5.88
2023-02-11T06:14:08.014Z,6.45
2023-02-11T06:16:35.863Z,6.88
2023-02-11T06:19:04.076Z,7.25
2023-02-11T06:21:43.032Z,6.95
2023-02-11T06:24:13.380Z,6.38
2023-02-11T06:26:41.302Z,5.72
2023-02-11T06:29:09.133Z,9.63
2023-02-11T06:31:38.349Z,6.20
2023-02-11T06:34:06.290Z,6.45
2023-02-11T06:36:34.294Z,6.28
2023-02-11T06:39:02.194Z,6.32
2023-02-11T06:41:31.581Z,5.85
2023-02-11T06:43:59.549Z,5.72
2023-02-11T06:46:27.586Z,8.93
2023-02-11T06:48:55.451Z,5.88
2023-02-11T06:51:23.498Z,7.15
2023-02-11T06:53:51.688Z,8.85
2023-02-11T06:56:20.521Z,5.68
2023-02-11T06:58:49.718Z,5.82
2023-02-11T07:01:17.672Z,6.57
2023-02-11T07:03:45.890Z,6.07
2023-02-11T07:06:14.898Z,6.97
2023-02-11T07:08:43.441Z,6.38
2023-02-11T07:11:12.097Z,5.45
2023-02-11T07:13:40.032Z,6.07
2023-02-11T07:16:10.315Z,8.75
2023-02-11T07:18:38.259Z,8.43
2023-02-11T07:21:06.933Z,6.75
2023-02-11T07:23:34.925Z,6.85
2023-02-11T07:26:04.456Z,6.75
2023-02-11T07:28:32.393Z,6.32
2023-02-11T07:31:00.440Z,5.85
2023-02-11T07:33:29.825Z,6.10
2023-02-11T07:35:58.997Z,6.30
2023-02-11T07:38:26.900Z,7.05
2023-02-11T07:40:54.981Z,5.90
2023-02-11T07:43:22.876Z,6.65
2023-02-11T07:45:50.962Z,6.95
2023-02-11T07:48:19.012Z,6.20
2023-02-11T07:50:48.277Z,5.95
2023-02-11T07:53:16.136Z,7.07
2023-02-11T07:55:44.188Z,6.90
2023-02-11T07:58:12.131Z,5.18
2023-02-11T08:00:40.005Z,5.78
2023-02-11T08:03:08.383Z,6.47
2023-02-11T08:05:38.823Z,6.63
2023-02-11T08:08:08.050Z,7.57
2023-02-11T08:10:36.939Z,6.25
2023-02-11T08:13:04.812Z,8.85
2023-02-11T08:15:32.676Z,7.10
2023-02-11T08:18:00.509Z,8.07
2023-02-11T08:20:28.447Z,6.22
2023-02-11T08:22:56.534Z,7.60
2023-02-11T08:25:25.766Z,7.63
2023-02-11T08:27:53.660Z,5.80
2023-02-11T08:30:21.562Z,7.80
2023-02-11T08:32:49.412Z,8.27
2023-02-11T08:35:17.513Z,8.45
2023-02-11T08:37:45.407Z,5.80
2023-02-11T08:40:13.325Z,7.35
2023-02-11T08:42:42.570Z,8.95
2023-02-11T08:45:12.373Z,8.77
2023-02-11T08:47:40.388Z,5.78
2023-02-11T08:50:08.610Z,5.88
2023-02-11T08:52:37.284Z,6.60
2023-02-11T08:55:05.598Z,7.05
2023-02-11T08:57:33.425Z,6.38
2023-02-11T09:00:02.927Z,7.43
2023-02-11T09:02:30.858Z,6.45
2023-02-11T09:04:58.715Z,6.72
2023-02-11T09:07:26.591Z,11.23
2023-02-11T09:09:54.603Z,6.18
2023-02-11T09:12:22.479Z,10.45
2023-02-11T09:14:50.356Z,9.00
2023-02-11T09:17:19.543Z,8.35
2023-02-11T09:19:47.405Z,5.72
2023-02-11T09:22:15.255Z,8.02
2023-02-11T09:24:43.127Z,6.25
2023-02-11T09:27:11.009Z,6.47
2023-02-11T09:29:38.855Z,8.40
2023-02-11T09:32:09.616Z,7.07
2023-02-11T09:34:39.045Z,22.38
2023-02-11T09:37:06.910Z,61.70
2023-02-11T09:39:34.795Z,78.55
2023-02-11T09:42:19.851Z,67.85
2023-02-11T09:44:47.892Z,60.63
2023-02-11T09:47:24.299Z,69.78
2023-02-11T09:49:54.893Z,57.72
2023-02-11T09:52:27.821Z,55.63
2023-02-11T09:54:56.718Z,59.38
2023-02-11T09:57:29.045Z,55.58
2023-02-11T09:59:57.497Z,49.47
2023-02-11T10:02:27.395Z,52.05
2023-02-11T10:05:09.896Z,71.03
2023-02-11T10:07:38.958Z,45.80
2023-02-11T10:10:13.043Z,36.55
2023-02-11T10:12:48.469Z,40.33
2023-02-11T10:15:22.877Z,36.35
2023-02-11T10:18:03.995Z,45.40
2023-02-11T10:20:34.929Z,32.40
2023-02-11T10:23:06.483Z,35.92
2023-02-11T10:25:35.795Z,30.75
2023-02-11T10:28:12.687Z,26.33
2023-02-11T10:30:43.798Z,31.40
2023-02-11T10:33:15.043Z,33.75
2023-02-11T10:35:45.678Z,25.92
2023-02-11T10:38:13.600Z,31.17
2023-02-11T10:40:41.536Z,31.52
2023-02-11T10:43:12.274Z,27.08
2023-02-11T10:45:41.072Z,26.67
2023-02-11T10:48:39.904Z,29.13
2023-02-11T10:51:21.026Z,26.55
2023-02-11T10:53:49.582Z,27.13
2023-02-11T10:56:23.242Z,25.92
2023-02-11T10:58:56.771Z,19.70
2023-02-11T11:01:25.149Z,34.35
2023-02-11T11:03:53.719Z,23.20
2023-02-11T11:06:31.485Z,24.15
2023-02-11T11:08:59.440Z,33.63
2023-02-11T11:11:27.578Z,46.15
2023-02-11T11:13:58.042Z,38.30
2023-02-11T11:16:26.723Z,40.53
2023-02-11T11:18:55.444Z,45.97
2023-02-11T11:21:24.656Z,51.72
2023-02-11T11:23:58.207Z,55.40
2023-02-11T11:26:26.876Z,58.65
2023-02-11T11:28:57.504Z,46.40
2023-02-11T11:31:26.543Z,40.95
2023-02-11T11:33:56.409Z,45.33
2023-02-11T11:36:25.001Z,36.13
2023-02-11T11:38:55.690Z,43.35
2023-02-11T11:41:28.619Z,39.38
2023-02-11T11:44:04.791Z,38.65
2023-02-11T11:46:36.704Z,36.97
2023-02-11T11:49:18.882Z,37.83
2023-02-11T11:51:48.935Z,33.25
2023-02-11T11:54:17.003Z,34.67
2023-02-11T11:56:51.615Z,34.28
2023-02-11T11:59:19.469Z,29.38
2023-02-11T12:01:53.893Z,40.95
2023-02-11T12:04:28.464Z,29.35
2023-02-11T12:07:06.392Z,36.42
2023-02-11T12:09:37.298Z,28.17
2023-02-11T12:12:14.423Z,33.28
2023-02-11T12:14:45.176Z,28.25
2023-02-11T12:17:18.557Z,26.65
2023-02-11T12:19:56.463Z,29.27
2023-02-11T12:22:34.544Z,27.15
2023-02-11T12:25:09.351Z,26.58
2023-02-11T12:27:47.709Z,21.50
2023-02-11T12:30:42.435Z,20.95
2023-02-11T12:33:14.161Z,24.23
2023-02-11T12:35:45.908Z,26.50
2023-02-11T12:38:27.226Z,26.25
2023-02-11T12:41:00.888Z,19.75
2023-02-11T12:43:32.228Z,25.85
2023-02-11T12:46:16.227Z,21.40
2023-02-11T12:49:06.263Z,20.27
2023-02-11T12:51:41.711Z,22.58
2023-02-11T12:54:16.759Z,23.70
2023-02-11T12:56:46.571Z,44.33
2023-02-11T12:59:18.269Z,25.38
2023-02-11T13:01:46.153Z,26.30
2023-02-11T13:04:16.865Z,21.00
2023-02-11T13:06:46.295Z,20.92
2023-02-11T13:09:18.962Z,23.85
2023-02-11T13:11:52.095Z,19.90
2023-02-11T13:14:25.778Z,20.75
2023-02-11T13:16:54.218Z,23.23
2023-02-11T13:19:24.828Z,19.05
2023-02-11T13:22:02.481Z,18.00
2023-02-11T13:24:33.137Z,19.15
2023-02-11T13:27:05.784Z,16.17
2023-02-11T13:29:41.773Z,19.40
2023-02-11T13:32:10.673Z,18.55
2023-02-11T13:34:58.521Z,21.67
2023-02-11T13:37:27.633Z,19.60
2023-02-11T13:40:00.026Z,17.73
2023-02-11T13:42:28.175Z,17.98
2023-02-11T13:44:57.406Z,15.95
2023-02-11T13:47:31.060Z,19.65
2023-02-11T13:49:59.130Z,14.30
2023-02-11T13:52:28.205Z,14.85
2023-02-11T13:54:56.996Z,19.30
2023-02-11T13:57:31.509Z,17.55
2023-02-11T14:00:01.094Z,13.73
2023-02-11T14:02:49.331Z,16.63
2023-02-11T14:05:48.605Z,21.52
2023-02-11T14:08:41.525Z,12.45
2023-02-11T14:11:49.765Z,12.38
2023-02-11T14:14:23.842Z,11.85
2023-02-11T14:17:33.012Z,14.18
2023-02-11T14:20:02.107Z,13.07
2023-02-11T14:22:31.600Z,15.27
2023-02-11T14:25:00.858Z,15.43
2023-02-11T14:27:34.918Z,14.18
2023-02-11T14:30:22.623Z,14.23
2023-02-11T14:33:00.928Z,16.95
2023-02-11T14:35:30.734Z,15.75
2023-02-11T14:38:01.770Z,13.38
2023-02-11T14:40:31.888Z,16.80
2023-02-11T14:43:12.665Z,17.35
2023-02-11T14:45:40.715Z,16.55
2023-02-11T14:48:15.499Z,18.92
2023-02-11T14:50:45.801Z,16.08
2023-02-11T14:53:15.924Z,19.25
2023-02-11T14:55:44.439Z,21.70
2023-02-11T14:58:15.435Z,20.00
2023-02-11T15:00:51.234Z,20.73
2023-02-11T15:03:32.115Z,24.67
2023-02-11T15:06:00.926Z,25.73
2023-02-11T15:08:30.028Z,27.23
2023-02-11T15:10:57.874Z,24.90
2023-02-11T15:13:31.229Z,27.63
2023-02-11T15:16:01.204Z,33.25
2023-02-11T15:18:34.206Z,29.67
2023-02-11T15:21:02.275Z,32.97
2023-02-11T15:23:30.630Z,29.80
2023-02-11T15:26:03.070Z,34.25
2023-02-11T15:28:31.974Z,34.83
2023-02-11T15:31:01.642Z,35.95
2023-02-11T15:33:32.204Z,37.30
2023-02-11T15:36:00.913Z,36.10
2023-02-11T15:38:29.949Z,33.08
2023-02-11T15:41:00.913Z,39.63
2023-02-11T15:43:42.472Z,34.05
2023-02-11T15:46:11.119Z,35.55
2023-02-11T15:48:43.400Z,36.05
2023-02-11T15:51:18.968Z,39.35
2023-02-11T15:53:49.400Z,39.72
2023-02-11T15:56:19.891Z,38.58
2023-02-11T15:58:48.753Z,37.17
2023-02-11T16:01:16.608Z,38.47
2023-02-11T16:03:46.795Z,39.08
2023-02-11T16:06:22.467Z,39.55
2023-02-11T16:09:01.369Z,39.47
2023-02-11T16:11:31.514Z,40.50
2023-02-11T16:14:00.182Z,38.70
2023-02-11T16:16:29.821Z,36.97
2023-02-11T16:19:06.410Z,38.63
2023-02-11T16:21:38.869Z,35.28
2023-02-11T16:24:07.298Z,40.28
2023-02-11T16:26:37.018Z,38.80
2023-02-11T16:29:06.610Z,37.58
2023-02-11T16:31:35.621Z,32.00
2023-02-11T16:34:08.954Z,32.85
2023-02-11T16:36:37.026Z,33.88
2023-02-11T16:39:05.092Z,32.45
2023-02-11T16:41:33.171Z,34.05
2023-02-11T16:44:01.459Z,35.03
2023-02-11T16:46:29.426Z,32.63
2023-02-11T16:48:57.306Z,30.45
2023-02-11T16:51:26.731Z,31.85
2023-02-11T16:53:54.613Z,32.30
2023-02-11T16:56:22.661Z,26.65
2023-02-11T16:58:50.560Z,28.58
2023-02-11T17:01:18.469Z,31.73
2023-02-11T17:03:46.366Z,28.25
2023-02-11T17:06:14.376Z,28.08
2023-02-11T17:08:44.377Z,29.67
2023-02-11T17:11:16.576Z,29.20
2023-02-11T17:13:44.700Z,27.98
2023-02-11T17:16:18.128Z,30.77
2023-02-11T17:18:46.217Z,21.88
2023-02-11T17:21:14.147Z,30.55
2023-02-11T17:23:43.678Z,29.65
2023-02-11T17:26:11.541Z,24.17
2023-02-11T17:28:39.404Z,25.40
2023-02-11T17:31:09.176Z,24.90
2023-02-11T17:33:37.820Z,27.38
2023-02-11T17:36:07.632Z,24.83
2023-02-11T17:38:35.526Z,24.52
2023-02-11T17:41:05.624Z,21.77
2023-02-11T17:43:33.667Z,24.80
2023-02-11T17:46:01.781Z,24.00
2023-02-11T17:48:29.670Z,20.75
2023-02-11T17:50:57.499Z,21.08
2023-02-11T17:53:25.384Z,20.25
2023-02-11T17:55:53.632Z,22.73
2023-02-11T17:58:23.094Z,22.60
2023-02-11T18:00:51.273Z,23.67
2023-02-11T18:03:19.232Z,23.98
2023-02-11T18:05:47.098Z,21.45
2023-02-11T18:08:14.953Z,19.75
2023-02-11T18:10:43.207Z,19.27
2023-02-11T18:13:11.391Z,19.42
2023-02-11T18:15:40.672Z,19.98
2023-02-11T18:18:08.475Z,19.00
2023-02-11T18:20:36.460Z,19.92
2023-02-11T18:23:04.675Z,19.13
2023-02-11T18:25:32.584Z,21.40
2023-02-11T18:28:00.639Z,22.40
2023-02-11T18:30:29.140Z,15.52
2023-02-11T18:32:58.404Z,17.45
2023-02-11T18:35:26.283Z,15.43
2023-02-11T18:37:54.312Z,16.98
2023-02-11T18:40:22.251Z,16.77
2023-02-11T18:42:50.212Z,21.13
2023-02-11T18:45:18.140Z,16.45
2023-02-11T18:47:46.121Z,16.73
2023-02-11T18:50:16.213Z,17.30
2023-02-11T18:52:44.155Z,17.30
2023-02-11T18:55:12.114Z,15.35
2023-02-11T18:57:40.044Z,15.63
2023-02-11T19:00:10.177Z,15.30
2023-02-11T19:02:38.271Z,20.35
2023-02-11T19:05:06.976Z,16.40
2023-02-11T19:07:36.509Z,16.27
2023-02-11T19:10:04.788Z,15.38
2023-02-11T19:12:33.251Z,14.70
2023-02-11T19:15:01.630Z,15.80
2023-02-11T19:17:29.576Z,15.15
2023-02-11T19:19:57.621Z,15.25
2023-02-11T19:22:25.500Z,17.67
2023-02-11T19:24:54.880Z,13.40
2023-02-11T19:27:22.997Z,14.95
2023-02-11T19:29:50.909Z,14.43
2023-02-11T19:32:18.993Z,15.20
2023-02-11T19:34:46.937Z,16.10
2023-02-11T19:37:15.045Z,11.38
2023-02-11T19:39:43.626Z,15.25
2023-02-11T19:42:13.042Z,11.48
2023-02-11T19:44:40.906Z,11.80
2023-02-11T19:47:10.200Z,14.65
2023-02-11T19:49:38.087Z,11.23
2023-02-11T19:52:06.603Z,12.00
2023-02-11T19:54:34.829Z,11.95
2023-02-11T19:57:02.746Z,11.70
2023-02-11T19:59:32.244Z,11.70
2023-02-11T20:02:01.418Z,14.00
2023-02-11T20:04:32.233Z,13.52
2023-02-11T20:07:00.246Z,11.63
2023-02-11T20:09:29.017Z,13.82
2023-02-11T20:11:56.893Z,13.05
2023-02-11T20:14:27.771Z,14.25
2023-02-11T20:16:57.393Z,12.02
2023-02-11T20:19:25.548Z,13.35
2023-02-11T20:21:55.929Z,12.40
2023-02-11T20:24:24.125Z,13.40
2023-02-11T20:26:55.752Z,13.07
2023-02-11T20:29:24.343Z,13.93
2023-02-11T20:31:52.382Z,12.35
2023-02-11T20:34:22.165Z,13.23
2023-02-11T20:36:53.023Z,12.40
2023-02-11T20:39:22.138Z,15.88
2023-02-11T20:41:50.212Z,13.43
2023-02-11T20:44:18.269Z,11.13
2023-02-11T20:46:47.089Z,13.52
2023-02-11T20:49:15.632Z,16.42
2023-02-11T20:51:45.071Z,13.88
2023-02-11T20:54:13.863Z,15.88
2023-02-11T20:56:41.828Z,11.30
2023-02-11T20:59:09.901Z,13.20
2023-02-11T21:01:40.718Z,11.90
2023-02-11T21:04:11.856Z,9.68
2023-02-11T21:06:41.118Z,10.88
2023-02-11T21:09:12.199Z,12.13
2023-02-11T21:11:40.055Z,14.77
2023-02-11T21:14:08.015Z,12.32
2023-02-11T21:16:35.877Z,15.10
2023-02-11T21:19:04.891Z,19.50
2023-02-11T21:21:32.980Z,14.80
2023-02-11T21:24:00.947Z,18.95
2023-02-11T21:26:30.322Z,20.70
2023-02-11T21:28:58.258Z,16.70
2023-02-11T21:31:28.130Z,21.42
2023-02-11T21:33:56.563Z,27.55
2023-02-11T21:36:24.579Z,28.13
2023-02-11T21:38:52.652Z,15.18
2023-02-11T21:41:22.370Z,19.73
2023-02-11T21:43:51.782Z,12.55
2023-02-11T21:46:20.402Z,20.27
2023-02-11T21:48:48.377Z,20.20
2023-02-11T21:51:18.199Z,17.38
2023-02-11T21:53:46.130Z,13.18
2023-02-11T21:56:15.224Z,14.30
2023-02-11T21:58:43.209Z,10.70
2023-02-11T22:01:13.851Z,16.20
2023-02-11T22:03:41.889Z,13.32
2023-02-11T22:06:11.075Z,12.75
2023-02-11T22:08:39.114Z,13.43
2023-02-11T22:11:07.537Z,10.85
2023-02-11T22:13:35.509Z,13.45
2023-02-11T22:16:04.466Z,8.82
2023-02-11T22:18:33.841Z,16.50
2023-02-11T22:21:02.342Z,12.20
2023-02-11T22:23:30.509Z,17.55
2023-02-11T22:25:58.593Z,11.40
2023-02-11T22:28:26.973Z,12.18
2023-02-11T22:30:55.406Z,14.50
2023-02-11T22:33:23.406Z,11.30
2023-02-11T22:35:58.485Z,7.82
2023-02-11T22:38:26.599Z,7.50
2023-02-11T22:40:54.615Z,11.30
2023-02-11T22:43:22.522Z,6.85
2023-02-11T22:45:50.485Z,9.00
2023-02-11T22:48:20.788Z,10.63
2023-02-11T22:50:52.064Z,9.60
2023-02-11T22:53:20.064Z,8.18
2023-02-11T22:55:47.942Z,7.47
2023-02-11T22:58:16.275Z,10.00
2023-02-11T23:00:44.124Z,7.68
2023-02-11T23:03:11.998Z,8.80
2023-02-11T23:05:40.218Z,7.90
2023-02-11T23:08:09.782Z,7.10
2023-02-11T23:10:37.765Z,6.22
2023-02-11T23:13:05.854Z,7.30
2023-02-11T23:15:33.786Z,7.63
2023-02-11T23:18:01.687Z,6.32
2023-02-11T23:20:29.553Z,6.68
2023-02-11T23:22:57.417Z,5.65
2023-02-11T23:25:26.667Z,7.30
2023-02-11T23:27:54.584Z,10.45
2023-02-11T23:30:22.840Z,5.55
2023-02-11T23:32:50.862Z,6.53
2023-02-11T23:35:22.194Z,8.25
2023-02-11T23:37:50.261Z,6.55
2023-02-11T23:40:18.485Z,5.30
2023-02-11T23:42:49.204Z,6.72
2023-02-11T23:45:17.270Z,4.78
2023-02-11T23:47:45.234Z,5.45
2023-02-11T23:50:13.348Z,6.72
2023-02-11T23:52:41.252Z,5.43
2023-02-11T23:55:09.293Z,4.28
2023-02-11T23:57:37.138Z,5.07
